createdAt,value
2017-12-20T00:01:23.784Z,58.00
2017-12-20T00:03:50.024Z,51.00
2017-12-20T00:06:16.398Z,63.27
2017-12-20T00:08:43.368Z,57.77
2017-12-20T00:11:09.628Z,58.97
2017-12-20T00:13:35.868Z,55.20
2017-12-20T00:16:02.124Z,60.53
2017-12-20T00:18:29.099Z,60.20
2017-12-20T00:20:55.360Z,57.67
2017-12-20T00:23:21.724Z,47.67
2017-12-20T00:25:48.726Z,53.83
2017-12-20T00:28:14.959Z,53.40
2017-12-20T00:30:41.222Z,49.37
2017-12-20T00:33:08.196Z,58.13
2017-12-20T00:35:34.466Z,59.90
2017-12-20T00:38:01.633Z,51.83
2017-12-20T00:40:27.878Z,52.27
2017-12-20T00:42:54.873Z,53.90
2017-12-20T00:45:21.124Z,59.90
2017-12-20T00:47:47.399Z,55.63
2017-12-20T00:50:13.647Z,50.20
2017-12-20T00:52:39.913Z,50.47
2017-12-20T00:55:06.169Z,58.53
2017-12-20T00:57:33.170Z,58.10
2017-12-20T00:59:59.464Z,54.10
2017-12-20T01:02:25.702Z,49.37
2017-12-20T01:04:51.951Z,47.97
2017-12-20T01:07:18.297Z,49.43
2017-12-20T01:09:44.523Z,48.70
2017-12-20T01:12:11.535Z,48.23
2017-12-20T01:14:37.766Z,55.93
2017-12-20T01:17:04.015Z,53.07
2017-12-20T01:19:30.273Z,56.10
2017-12-20T01:21:56.557Z,49.40
2017-12-20T01:24:22.835Z,51.03
2017-12-20T01:26:49.077Z,51.60
2017-12-20T01:29:16.128Z,49.03
2017-12-20T01:31:43.135Z,52.07
2017-12-20T01:34:09.407Z,49.30
2017-12-20T01:36:36.483Z,46.17
2017-12-20T01:39:02.826Z,52.40
2017-12-20T01:41:29.141Z,44.23
2017-12-20T01:43:55.453Z,40.23
2017-12-20T01:46:22.495Z,47.57
2017-12-20T01:48:49.605Z,42.47
2017-12-20T01:51:16.593Z,47.57
2017-12-20T01:53:43.741Z,45.50
2017-12-20T01:56:10.801Z,43.40
2017-12-20T01:58:37.081Z,48.77
2017-12-20T02:01:03.355Z,40.90
2017-12-20T02:03:30.422Z,47.90
2017-12-20T02:05:56.667Z,51.77
2017-12-20T02:08:22.949Z,49.27
2017-12-20T02:10:49.931Z,48.53
2017-12-20T02:13:16.237Z,69.77
2017-12-20T02:15:43.253Z,66.50
2017-12-20T02:18:09.628Z,69.63
2017-12-20T02:20:35.895Z,75.77
2017-12-20T02:23:02.164Z,67.73
2017-12-20T02:25:29.202Z,79.30
2017-12-20T02:27:55.465Z,81.60
2017-12-20T02:30:21.764Z,75.13
2017-12-20T02:32:56.440Z,72.60
2017-12-20T02:35:22.725Z,67.13
2017-12-20T02:37:49.731Z,73.97
2017-12-20T02:40:16.021Z,69.10
2017-12-20T02:42:42.303Z,64.27
2017-12-20T02:45:08.594Z,59.43
2017-12-20T02:47:34.937Z,66.03
2017-12-20T02:50:01.236Z,66.80
2017-12-20T02:52:27.567Z,66.63
2017-12-20T02:54:53.849Z,69.17
2017-12-20T02:57:20.170Z,62.20
2017-12-20T02:59:46.445Z,66.50
2017-12-20T03:02:13.442Z,58.13
2017-12-20T03:04:39.712Z,62.00
2017-12-20T03:07:06.765Z,75.10
2017-12-20T03:09:33.772Z,63.80
2017-12-20T03:12:00.044Z,68.37
2017-12-20T03:14:27.056Z,69.90
2017-12-20T03:16:53.341Z,62.13
2017-12-20T03:19:19.657Z,65.63
2017-12-20T03:21:46.740Z,85.40
2017-12-20T03:24:12.990Z,91.33
2017-12-20T03:26:39.269Z,58.73
2017-12-20T03:29:05.531Z,60.87
2017-12-20T03:31:31.795Z,58.93
2017-12-20T03:33:58.064Z,51.43
2017-12-20T03:36:24.339Z,69.17
2017-12-20T03:38:50.576Z,66.40
2017-12-20T03:41:16.859Z,55.63
2017-12-20T03:43:43.112Z,53.57
2017-12-20T03:46:09.373Z,52.57
2017-12-20T03:48:35.653Z,46.67
2017-12-20T03:51:01.940Z,48.90
2017-12-20T03:53:28.951Z,45.43
2017-12-20T03:55:55.216Z,49.20
2017-12-20T03:58:22.228Z,47.40
2017-12-20T04:00:48.493Z,45.50
2017-12-20T04:03:15.561Z,46.00
2017-12-20T04:05:41.812Z,48.23
2017-12-20T04:08:08.088Z,47.07
2017-12-20T04:10:34.341Z,47.77
2017-12-20T04:13:00.626Z,48.50
2017-12-20T04:15:26.895Z,57.00
2017-12-20T04:17:53.921Z,46.77
2017-12-20T04:20:20.146Z,45.53
2017-12-20T04:22:46.395Z,44.00
2017-12-20T04:25:13.392Z,45.30
2017-12-20T04:27:39.658Z,45.83
2017-12-20T04:30:06.044Z,45.70
2017-12-20T04:32:32.336Z,46.93
2017-12-20T04:34:59.303Z,48.53
2017-12-20T04:37:25.570Z,52.30
2017-12-20T04:39:51.783Z,50.40
2017-12-20T04:42:18.018Z,42.23
2017-12-20T04:44:44.281Z,43.60
2017-12-20T04:47:10.511Z,45.60
2017-12-20T04:49:37.513Z,46.10
2017-12-20T04:52:03.765Z,37.30
2017-12-20T04:54:30.021Z,38.13
2017-12-20T04:56:57.009Z,42.33
2017-12-20T04:59:23.251Z,42.27
2017-12-20T05:01:49.492Z,38.80
2017-12-20T05:04:15.772Z,42.90
2017-12-20T05:06:42.004Z,41.40
2017-12-20T05:09:08.259Z,42.90
2017-12-20T05:11:34.490Z,42.33
2017-12-20T05:14:01.502Z,52.67
2017-12-20T05:16:27.744Z,52.03
2017-12-20T05:18:54.001Z,62.00
2017-12-20T05:21:20.237Z,51.93
2017-12-20T05:23:46.490Z,58.43
2017-12-20T05:26:12.729Z,46.30
2017-12-20T05:28:39.732Z,72.93
2017-12-20T05:31:05.991Z,42.30
2017-12-20T05:33:32.231Z,43.33
2017-12-20T05:35:59.199Z,43.97
2017-12-20T05:38:25.469Z,44.17
2017-12-20T05:40:51.749Z,39.27
2017-12-20T05:43:18.000Z,50.70
2017-12-20T05:45:44.253Z,43.33
2017-12-20T05:48:10.581Z,42.90
2017-12-20T05:50:36.823Z,43.17
2017-12-20T05:53:03.086Z,58.43
2017-12-20T05:55:30.072Z,75.47
2017-12-20T05:57:56.324Z,45.23
2017-12-20T06:00:22.614Z,54.23
2017-12-20T06:02:48.856Z,71.00
2017-12-20T06:05:15.219Z,46.80
2017-12-20T06:07:41.454Z,47.30
2017-12-20T06:10:07.719Z,53.53
2017-12-20T06:12:34.171Z,57.47
2017-12-20T06:15:00.446Z,49.77
2017-12-20T06:17:26.658Z,46.50
2017-12-20T06:19:52.898Z,56.37
2017-12-20T06:22:19.132Z,47.53
2017-12-20T06:24:45.378Z,53.77
2017-12-20T06:27:12.340Z,42.97
2017-12-20T06:29:38.574Z,49.77
2017-12-20T06:32:04.817Z,58.93
2017-12-20T06:34:31.063Z,104.80
2017-12-20T06:36:57.306Z,47.07
2017-12-20T06:39:23.561Z,73.53
2017-12-20T06:41:50.533Z,95.80
2017-12-20T06:44:16.793Z,97.03
2017-12-20T06:46:43.040Z,40.03
2017-12-20T06:49:09.309Z,54.07
2017-12-20T06:51:36.296Z,54.73
2017-12-20T06:54:02.576Z,85.77
2017-12-20T06:56:29.578Z,64.30
2017-12-20T06:58:55.853Z,51.17
2017-12-20T07:01:22.877Z,107.80
2017-12-20T07:03:49.140Z,43.33
2017-12-20T07:06:15.401Z,46.40
2017-12-20T07:08:41.655Z,60.60
2017-12-20T07:11:09.383Z,40.00
2017-12-20T07:13:35.640Z,52.73
2017-12-20T07:16:02.663Z,45.30
2017-12-20T07:18:28.953Z,92.47
2017-12-20T07:20:55.979Z,92.13
2017-12-20T07:23:22.235Z,97.40
2017-12-20T07:25:49.223Z,42.90
2017-12-20T07:28:15.668Z,58.70
2017-12-20T07:30:42.668Z,95.10
2017-12-20T07:33:12.437Z,35.70
2017-12-20T07:35:42.696Z,40.87
2017-12-20T07:38:09.019Z,50.23
2017-12-20T07:40:36.056Z,47.17
2017-12-20T07:43:02.312Z,43.50
2017-12-20T07:45:28.571Z,40.87
2017-12-20T07:47:54.819Z,37.03
2017-12-20T07:50:21.049Z,40.80
2017-12-20T07:52:47.302Z,39.20
2017-12-20T07:55:13.532Z,46.80
2017-12-20T07:57:40.548Z,136.70
2017-12-20T08:00:06.784Z,49.17
2017-12-20T08:02:33.041Z,42.43
2017-12-20T08:05:00.019Z,41.03
2017-12-20T08:07:26.272Z,47.33
2017-12-20T08:09:52.526Z,55.53
2017-12-20T08:12:18.775Z,42.93
2017-12-20T08:14:45.734Z,38.00
2017-12-20T08:17:11.979Z,42.33
2017-12-20T08:19:38.233Z,37.77
2017-12-20T08:22:04.468Z,38.73
2017-12-20T08:24:30.744Z,42.57
2017-12-20T08:26:57.739Z,31.43
2017-12-20T08:29:24.757Z,34.63
2017-12-20T08:31:51.023Z,29.10
2017-12-20T08:34:17.279Z,31.80
2017-12-20T08:36:43.506Z,32.10
2017-12-20T08:39:10.516Z,27.83
2017-12-20T08:41:36.776Z,27.30
2017-12-20T08:44:03.041Z,26.00
2017-12-20T08:46:29.305Z,29.60
2017-12-20T08:48:55.543Z,32.63
2017-12-20T08:51:21.805Z,29.23
2017-12-20T08:53:48.784Z,23.40
2017-12-20T08:56:15.045Z,26.73
2017-12-20T08:58:41.263Z,28.33
2017-12-20T09:01:07.524Z,25.00
2017-12-20T09:03:33.758Z,23.63
2017-12-20T09:06:00.007Z,24.27
2017-12-20T09:08:26.242Z,24.67
2017-12-20T09:10:52.509Z,21.37
2017-12-20T09:13:18.751Z,24.20
2017-12-20T09:15:45.003Z,21.73
2017-12-20T09:18:11.968Z,24.93
2017-12-20T09:20:38.231Z,28.60
2017-12-20T09:23:04.481Z,28.00
2017-12-20T09:25:30.716Z,27.47
2017-12-20T09:27:57.009Z,23.07
2017-12-20T09:30:23.252Z,19.37
2017-12-20T09:32:49.510Z,24.50
2017-12-20T09:35:15.760Z,25.40
2017-12-20T09:37:42.748Z,23.77
2017-12-20T09:40:08.979Z,25.60
2017-12-20T09:42:35.236Z,22.07
2017-12-20T09:45:01.468Z,25.27
2017-12-20T09:47:27.725Z,24.33
2017-12-20T09:49:54.710Z,23.70
2017-12-20T09:52:20.977Z,20.97
2017-12-20T09:54:47.207Z,21.47
2017-12-20T09:57:13.467Z,20.40
2017-12-20T09:59:39.687Z,22.97
2017-12-20T10:02:06.701Z,25.57
2017-12-20T10:04:32.996Z,29.40
2017-12-20T10:06:59.243Z,19.60
2017-12-20T10:09:25.549Z,21.87
2017-12-20T10:11:51.807Z,21.73
2017-12-20T10:14:18.101Z,26.40
2017-12-20T10:16:44.365Z,26.77
2017-12-20T10:19:10.633Z,24.03
2017-12-20T10:21:37.643Z,23.07
2017-12-20T10:24:03.915Z,32.57
2017-12-20T10:26:30.892Z,23.07
2017-12-20T10:28:57.162Z,19.40
2017-12-20T10:31:23.440Z,20.83
2017-12-20T10:33:49.699Z,20.23
2017-12-20T10:36:16.682Z,21.40
2017-12-20T10:38:43.716Z,20.13
2017-12-20T10:41:09.955Z,25.27
2017-12-20T10:43:36.960Z,17.87
2017-12-20T10:46:03.202Z,20.63
2017-12-20T10:48:29.481Z,31.47
2017-12-20T10:50:55.752Z,21.50
2017-12-20T10:53:22.764Z,24.87
2017-12-20T10:55:49.014Z,30.43
2017-12-20T10:58:15.266Z,20.30
2017-12-20T11:00:42.357Z,20.77
2017-12-20T11:03:09.366Z,23.00
2017-12-20T11:05:35.634Z,23.80
2017-12-20T11:08:02.636Z,32.70
2017-12-20T11:10:28.906Z,20.40
2017-12-20T11:12:55.898Z,24.77
2017-12-20T11:15:22.182Z,23.37
2017-12-20T11:17:49.161Z,24.23
2017-12-20T11:20:15.440Z,24.37
2017-12-20T11:22:42.605Z,25.10
2017-12-20T11:25:09.618Z,27.37
2017-12-20T11:27:35.900Z,23.73
2017-12-20T11:30:02.195Z,24.80
2017-12-20T11:32:28.493Z,26.10
2017-12-20T11:34:54.775Z,25.33
2017-12-20T11:37:21.767Z,23.90
2017-12-20T11:39:48.799Z,23.70
2017-12-20T11:42:15.051Z,21.97
2017-12-20T11:44:41.356Z,30.00
2017-12-20T11:47:07.625Z,23.70
2017-12-20T11:49:33.913Z,18.80
2017-12-20T11:52:00.160Z,32.73
2017-12-20T11:54:26.439Z,24.23
2017-12-20T11:56:53.448Z,24.70
2017-12-20T11:59:19.733Z,37.20
2017-12-20T12:01:45.994Z,28.10
2017-12-20T12:04:12.289Z,27.50
2017-12-20T12:06:38.601Z,24.43
2017-12-20T12:09:05.591Z,23.80
2017-12-20T12:11:31.857Z,23.07
2017-12-20T12:13:58.150Z,22.53
2017-12-20T12:16:24.389Z,24.10
2017-12-20T12:18:50.633Z,23.17
2017-12-20T12:21:16.920Z,22.60
2017-12-20T12:23:43.196Z,21.30
2017-12-20T12:26:09.476Z,18.23
2017-12-20T12:28:35.711Z,19.00
2017-12-20T12:31:02.008Z,16.93
2017-12-20T12:33:28.975Z,18.50
2017-12-20T12:35:55.263Z,15.53
2017-12-20T12:38:21.487Z,19.03
2017-12-20T12:40:47.785Z,21.17
2017-12-20T12:43:14.037Z,13.60
2017-12-20T12:45:40.336Z,15.40
2017-12-20T12:48:06.579Z,16.73
2017-12-20T12:50:32.832Z,14.77
2017-12-20T12:52:59.104Z,16.73
2017-12-20T12:55:25.357Z,14.67
2017-12-20T12:57:51.619Z,14.23
2017-12-20T13:00:17.875Z,17.00
2017-12-20T13:02:44.877Z,13.13
2017-12-20T13:05:11.149Z,14.47
2017-12-20T13:07:38.138Z,15.13
2017-12-20T13:10:04.389Z,11.93
2017-12-20T13:12:30.672Z,15.17
2017-12-20T13:14:56.955Z,14.87
2017-12-20T13:17:23.232Z,19.30
2017-12-20T13:19:49.477Z,15.50
2017-12-20T13:22:15.732Z,15.03
2017-12-20T13:24:41.985Z,12.57
2017-12-20T13:27:08.982Z,14.33
2017-12-20T13:29:35.229Z,13.33
2017-12-20T13:32:01.513Z,14.00
2017-12-20T13:34:27.743Z,14.07
2017-12-20T13:36:53.982Z,13.17
2017-12-20T13:39:20.228Z,12.83
2017-12-20T13:41:46.524Z,15.93
2017-12-20T13:44:13.521Z,12.67
2017-12-20T13:46:39.796Z,12.50
2017-12-20T13:49:06.835Z,17.77
2017-12-20T13:51:33.860Z,13.10
2017-12-20T13:54:00.107Z,14.10
2017-12-20T13:56:27.136Z,12.50
2017-12-20T13:58:53.396Z,11.63
2017-12-20T14:01:20.412Z,11.43
2017-12-20T14:03:46.674Z,13.60
2017-12-20T14:06:13.717Z,9.90
2017-12-20T14:08:40.745Z,12.50
2017-12-20T14:11:07.005Z,10.90
2017-12-20T14:13:33.269Z,11.83
2017-12-20T14:15:59.578Z,12.57
2017-12-20T14:18:25.833Z,14.27
2017-12-20T14:20:52.849Z,13.90
2017-12-20T14:23:19.098Z,11.87
2017-12-20T14:25:45.327Z,12.57
2017-12-20T14:28:11.589Z,13.23
2017-12-20T14:30:37.836Z,18.60
2017-12-20T14:33:04.810Z,14.10
2017-12-20T14:35:31.055Z,16.50
2017-12-20T14:37:57.346Z,12.93
2017-12-20T14:40:24.326Z,16.17
2017-12-20T14:42:50.575Z,14.20
2017-12-20T14:45:16.817Z,16.53
2017-12-20T14:47:43.092Z,15.00
2017-12-20T14:50:09.317Z,15.90
2017-12-20T14:52:35.580Z,15.90
2017-12-20T14:55:01.856Z,13.00
2017-12-20T14:57:28.887Z,14.27
2017-12-20T14:59:55.149Z,16.40
2017-12-20T15:02:22.171Z,15.13
2017-12-20T15:04:49.181Z,14.90
2017-12-20T15:07:15.452Z,19.07
2017-12-20T15:09:41.736Z,14.53
2017-12-20T15:12:08.015Z,15.87
2017-12-20T15:14:34.992Z,14.13
2017-12-20T15:17:01.263Z,15.73
2017-12-20T15:19:27.516Z,15.57
2017-12-20T15:21:54.531Z,14.83
2017-12-20T15:24:20.802Z,14.37
2017-12-20T15:26:47.807Z,13.57
2017-12-20T15:29:14.817Z,17.03
2017-12-20T15:31:41.121Z,22.20
2017-12-20T15:34:08.118Z,14.67
2017-12-20T15:36:34.382Z,16.57
2017-12-20T15:39:00.657Z,19.23
2017-12-20T15:41:26.928Z,17.87
2017-12-20T15:43:53.183Z,16.00
2017-12-20T15:46:20.247Z,17.80
2017-12-20T15:48:47.253Z,17.50
2017-12-20T15:51:13.531Z,18.87
2017-12-20T15:53:39.784Z,15.63
2017-12-20T15:56:06.031Z,21.13
2017-12-20T15:58:32.308Z,17.00
2017-12-20T16:00:58.599Z,17.77
2017-12-20T16:03:24.854Z,18.13
2017-12-20T16:05:51.847Z,19.53
2017-12-20T16:08:18.107Z,19.50
2017-12-20T16:10:44.343Z,18.50
2017-12-20T16:13:10.597Z,24.50
2017-12-20T16:15:37.570Z,20.43
2017-12-20T16:18:03.831Z,22.60
2017-12-20T16:20:30.084Z,22.87
2017-12-20T16:22:57.102Z,21.10
2017-12-20T16:25:23.327Z,21.37
2017-12-20T16:27:49.587Z,23.13
2017-12-20T16:30:15.856Z,23.73
2017-12-20T16:32:42.132Z,29.10
2017-12-20T16:35:08.393Z,25.83
2017-12-20T16:37:34.705Z,26.63
2017-12-20T16:40:01.721Z,25.47
2017-12-20T16:42:27.997Z,37.70
2017-12-20T16:44:55.023Z,24.63
2017-12-20T16:47:21.302Z,27.47
2017-12-20T16:49:47.548Z,35.77
2017-12-20T16:52:13.853Z,30.83
2017-12-20T16:54:40.106Z,22.93
2017-12-20T16:57:06.363Z,30.17
2017-12-20T16:59:32.649Z,28.33
2017-12-20T17:01:58.915Z,28.23
2017-12-20T17:04:25.215Z,31.40
2017-12-20T17:06:51.453Z,27.57
2017-12-20T17:09:17.901Z,28.10
2017-12-20T17:11:44.193Z,24.30
2017-12-20T17:14:10.447Z,25.40
2017-12-20T17:16:36.759Z,19.33
2017-12-20T17:19:03.066Z,20.90
2017-12-20T17:21:29.327Z,20.53
2017-12-20T17:23:55.583Z,21.97
2017-12-20T17:26:21.850Z,21.90
2017-12-20T17:28:48.121Z,20.43
2017-12-20T17:31:14.416Z,18.70
2017-12-20T17:33:40.688Z,20.73
2017-12-20T17:36:06.979Z,17.90
2017-12-20T17:38:33.250Z,17.60
2017-12-20T17:40:59.487Z,21.37
2017-12-20T17:43:25.779Z,19.67
2017-12-20T17:45:52.045Z,15.40
2017-12-20T17:48:18.308Z,20.47
2017-12-20T17:50:45.344Z,20.20
2017-12-20T17:53:12.405Z,19.43
2017-12-20T17:55:39.396Z,19.93
2017-12-20T17:58:05.683Z,19.50
2017-12-20T18:00:31.972Z,17.97
2017-12-20T18:02:58.295Z,18.80
2017-12-20T18:05:24.561Z,19.97
2017-12-20T18:07:50.835Z,21.40
2017-12-20T18:10:17.109Z,18.67
2017-12-20T18:12:43.371Z,15.87
2017-12-20T18:15:09.665Z,19.53
2017-12-20T18:17:35.979Z,19.00
2017-12-20T18:20:02.295Z,17.63
2017-12-20T18:22:29.282Z,22.67
2017-12-20T18:24:56.320Z,18.57
2017-12-20T18:27:22.560Z,19.53
2017-12-20T18:29:48.909Z,20.90
2017-12-20T18:32:15.209Z,18.43
2017-12-20T18:34:42.302Z,17.80
2017-12-20T18:37:08.559Z,21.50
2017-12-20T18:39:34.860Z,21.20
2017-12-20T18:42:01.127Z,20.47
2017-12-20T18:44:27.405Z,21.50
2017-12-20T18:46:53.748Z,19.93
2017-12-20T18:49:20.027Z,19.80
2017-12-20T18:51:46.267Z,21.30
2017-12-20T18:54:13.286Z,22.20
2017-12-20T18:56:39.549Z,20.43
2017-12-20T18:59:06.590Z,18.83
2017-12-20T19:01:32.839Z,25.73
2017-12-20T19:03:59.094Z,22.90
2017-12-20T19:06:25.502Z,22.30
2017-12-20T19:08:51.813Z,19.67
2017-12-20T19:11:18.801Z,24.40
2017-12-20T19:13:45.071Z,18.53
2017-12-20T19:16:12.341Z,23.80
2017-12-20T19:18:39.352Z,26.50
2017-12-20T19:21:05.629Z,19.87
2017-12-20T19:23:32.647Z,24.77
2017-12-20T19:25:58.920Z,21.23
2017-12-20T19:28:25.177Z,25.63
2017-12-20T19:30:51.451Z,24.73
2017-12-20T19:33:18.471Z,23.07
2017-12-20T19:35:44.727Z,25.37
2017-12-20T19:38:11.756Z,23.07
2017-12-20T19:40:38.005Z,24.77
2017-12-20T19:43:05.026Z,22.97
2017-12-20T19:45:31.334Z,23.10
2017-12-20T19:47:57.741Z,24.40
2017-12-20T19:50:24.715Z,29.13
2017-12-20T19:52:50.992Z,27.83
2017-12-20T19:55:17.994Z,26.47
2017-12-20T19:57:45.022Z,31.30
2017-12-20T20:00:11.267Z,34.37
2017-12-20T20:02:37.551Z,35.33
2017-12-20T20:05:04.555Z,35.70
2017-12-20T20:07:30.816Z,35.27
2017-12-20T20:09:57.096Z,32.50
2017-12-20T20:12:23.360Z,35.87
2017-12-20T20:14:49.582Z,31.37
2017-12-20T20:17:15.862Z,42.07
2017-12-20T20:19:42.096Z,34.83
2017-12-20T20:22:08.350Z,40.13
2017-12-20T20:24:34.609Z,32.03
2017-12-20T20:27:01.599Z,40.60
2017-12-20T20:29:27.897Z,34.97
2017-12-20T20:31:54.906Z,35.83
2017-12-20T20:34:21.157Z,35.93
2017-12-20T20:36:47.391Z,39.10
2017-12-20T20:39:13.648Z,38.73
2017-12-20T20:41:39.867Z,55.57
2017-12-20T20:44:07.109Z,45.37
2017-12-20T20:46:34.062Z,39.80
2017-12-20T20:49:01.072Z,39.70
2017-12-20T20:51:27.294Z,41.97
2017-12-20T20:53:53.551Z,45.20
2017-12-20T20:56:20.533Z,39.70
2017-12-20T20:58:46.795Z,40.83
2017-12-20T21:01:13.014Z,38.40
2017-12-20T21:03:39.279Z,36.73
2017-12-20T21:06:05.525Z,39.67
2017-12-20T21:08:32.551Z,34.60
2017-12-20T21:10:58.800Z,38.77
2017-12-20T21:13:25.791Z,35.27
2017-12-20T21:15:52.035Z,39.47
2017-12-20T21:18:19.021Z,35.10
2017-12-20T21:20:45.998Z,35.87
2017-12-20T21:23:12.269Z,34.93
2017-12-20T21:25:38.483Z,32.87
2017-12-20T21:28:04.767Z,30.07
2017-12-20T21:30:31.038Z,34.30
2017-12-20T21:32:58.886Z,37.50
2017-12-20T21:35:25.383Z,47.47
2017-12-20T21:37:52.394Z,41.20
2017-12-20T21:40:18.651Z,43.83
2017-12-20T21:42:44.904Z,44.97
2017-12-20T21:45:11.245Z,43.73
2017-12-20T21:47:37.516Z,49.00
2017-12-20T21:50:03.780Z,49.00
2017-12-20T21:52:30.773Z,46.20
2017-12-20T21:54:57.043Z,57.70
2017-12-20T21:57:24.046Z,50.50
2017-12-20T21:59:50.283Z,54.03
2017-12-20T22:02:16.685Z,44.90
2017-12-20T22:04:42.946Z,49.20
2017-12-20T22:07:09.252Z,39.70
2017-12-20T22:09:35.510Z,55.27
2017-12-20T22:12:01.793Z,65.17
2017-12-20T22:14:28.104Z,53.43
2017-12-20T22:16:55.089Z,53.97
2017-12-20T22:19:21.344Z,55.30
2017-12-20T22:21:47.597Z,54.70
2017-12-20T22:24:14.589Z,51.13
2017-12-20T22:26:40.840Z,59.53
2017-12-20T22:29:07.113Z,55.77
2017-12-20T22:31:34.108Z,45.73
2017-12-20T22:34:00.354Z,49.33
2017-12-20T22:36:26.729Z,59.30
2017-12-20T22:38:53.003Z,51.77
2017-12-20T22:41:19.344Z,69.20
2017-12-20T22:43:45.586Z,58.27
2017-12-20T22:46:11.860Z,62.80
2017-12-20T22:48:38.091Z,54.50
2017-12-20T22:51:04.349Z,75.57
2017-12-20T22:53:30.596Z,68.60
2017-12-20T22:55:56.854Z,76.50
2017-12-20T22:58:23.833Z,53.77
2017-12-20T23:00:50.106Z,89.30
2017-12-20T23:03:16.340Z,69.43
2017-12-20T23:05:42.590Z,77.70
2017-12-20T23:08:09.583Z,78.27
2017-12-20T23:10:35.845Z,101.67
2017-12-20T23:13:02.085Z,78.07
2017-12-20T23:15:29.096Z,88.30
2017-12-20T23:17:55.431Z,98.13
2017-12-20T23:20:21.706Z,82.70
2017-12-20T23:22:47.953Z,101.57
2017-12-20T23:25:14.200Z,77.67
2017-12-20T23:27:40.463Z,80.60
2017-12-20T23:30:06.754Z,79.43
2017-12-20T23:32:33.029Z,77.13
2017-12-20T23:35:00.011Z,71.33
2017-12-20T23:37:26.292Z,79.60
2017-12-20T23:39:52.519Z,80.60
2017-12-20T23:42:18.788Z,76.30
2017-12-20T23:44:45.032Z,75.83
2017-12-20T23:47:11.305Z,92.53
2017-12-20T23:49:37.559Z,61.03
2017-12-20T23:52:04.610Z,60.03
2017-12-20T23:54:31.626Z,72.47
2017-12-20T23:56:57.945Z,61.90
2017-12-20T23:59:24.199Z,67.50
